Time;durP1;ratioP1;P1;durP2;ratioP2;P2;SDS_P1;SDS_P2;PMS_P1;PMS_P2;Temp;Humidity;BMP_temperature;BMP_pressure;BME280_temperature;BME280_humidity;BME280_pressure;Samples;Min_cycle;Max_cycle;Signal;HPM_P1;HPM_P2
2022/08/09 00:02:08;;;;;;;8.00;2.40;;;;;;;;;;5032046;28;20863;-56
2022/08/09 00:04:34;;;;;;;9.52;2.20;;;;;;;;;;5048604;28;20443;-56
2022/08/09 00:07:00;;;;;;;8.27;2.55;;;;;;;;;;5048850;28;20804;-56
2022/08/09 00:09:26;;;;;;;9.55;2.50;;;;;;;;;;5049034;28;20457;-54
2022/08/09 00:11:52;;;;;;;6.50;2.60;;;;;;;;;;5031602;28;20489;-55
2022/08/09 00:14:18;;;;;;;8.82;2.72;;;;;;;;;;5049312;28;20447;-62
2022/08/09 00:16:44;;;;;;;6.78;2.60;;;;;;;;;;5049935;28;20369;-54
2022/08/09 00:19:11;;;;;;;6.35;2.60;;;;;;;;;;5031661;28;20405;-54
2022/08/09 00:21:37;;;;;;;8.90;2.65;;;;;;;;;;5049043;28;20480;-54
2022/08/09 00:24:03;;;;;;;6.60;2.92;;;;;;;;;;5050063;28;20409;-54
2022/08/09 00:26:30;;;;;;;9.10;2.50;;;;;;;;;;5048930;28;20442;-54
2022/08/09 00:28:56;;;;;;;9.05;2.80;;;;;;;;;;5049462;28;20401;-54
2022/08/09 00:31:22;;;;;;;6.10;2.50;;;;;;;;;;5048324;28;20421;-54
2022/08/09 00:33:49;;;;;;;7.72;3.00;;;;;;;;;;5049600;28;20470;-54
2022/08/09 00:36:15;;;;;;;7.68;2.70;;;;;;;;;;5049604;28;20381;-54
2022/08/09 00:38:41;;;;;;;6.40;2.53;;;;;;;;;;5048356;28;20599;-54
2022/08/09 00:41:07;;;;;;;7.65;2.50;;;;;;;;;;5049147;28;20384;-54
2022/08/09 00:43:36;;;;;;;8.40;2.60;;;;;;;;;;5048251;28;20414;-55
2022/08/09 00:46:03;;;;;;;7.80;2.70;;;;;;;;;;5049369;28;20373;-54
2022/08/09 00:48:29;;;;;;;6.35;2.42;;;;;;;;;;5049200;28;20369;-54
2022/08/09 00:50:55;;;;;;;8.30;2.45;;;;;;;;;;5049437;28;20510;-54
2022/08/09 00:53:21;;;;;;;8.37;2.80;;;;;;;;;;5048283;28;20377;-61
2022/08/09 00:55:47;;;;;;;9.70;3.17;;;;;;;;;;5048494;28;20460;-54
2022/08/09 00:58:13;;;;;;;7.40;2.60;;;;;;;;;;5048806;28;20918;-54
2022/08/09 01:00:41;;;;;;;7.88;2.60;;;;;;;;;;5048814;28;20378;-54
2022/08/09 01:03:16;;;;;;;6.28;2.65;;;;;;;;;;5050953;28;20472;-54
2022/08/09 01:05:57;;;;;;;8.15;2.85;;;;;;;;;;5034350;28;21298;-54
2022/08/09 01:08:23;;;;;;;7.90;2.80;;;;;;;;;;5051047;28;20401;-61
2022/08/09 01:11:04;;;;;;;7.80;2.40;;;;;;;;;;5043710;28;20377;-54
2022/08/09 01:13:36;;;;;;;7.57;2.60;;;;;;;;;;5051669;28;20385;-54
2022/08/09 01:16:04;;;;;;;6.80;3.00;;;;;;;;;;5043296;28;20389;-54
2022/08/09 01:18:31;;;;;;;7.70;2.53;;;;;;;;;;5052081;28;20409;-54
2022/08/09 01:21:07;;;;;;;7.30;2.67;;;;;;;;;;5052704;28;20395;-54
2022/08/09 01:23:51;;;;;;;7.30;2.35;;;;;;;;;;5034064;28;20488;-53
2022/08/09 01:26:24;;;;;;;7.78;3.80;;;;;;;;;;5050522;28;20944;-54
2022/08/09 01:28:52;;;;;;;6.43;2.50;;;;;;;;;;5051874;28;20994;-54
2022/08/09 01:31:20;;;;;;;6.35;2.50;;;;;;;;;;5034635;28;20392;-54
2022/08/09 01:33:47;;;;;;;7.50;2.88;;;;;;;;;;5052965;28;20369;-57
2022/08/09 01:36:14;;;;;;;7.20;2.40;;;;;;;;;;5051644;28;20377;-57
2022/08/09 01:38:42;;;;;;;7.63;2.60;;;;;;;;;;5051587;28;20409;-54
2022/08/09 01:41:12;;;;;;;6.30;2.50;;;;;;;;;;5052216;28;20443;-53
2022/08/09 01:43:40;;;;;;;6.63;2.50;;;;;;;;;;5051912;28;20870;-53
2022/08/09 01:46:08;;;;;;;7.13;2.60;;;17.30;99.90;;;;;;5051856;28;20412;-54
2022/08/09 01:48:35;;;;;;;6.40;2.67;;;17.40;99.90;;;;;;5051991;28;20389;-54
2022/08/09 01:51:02;;;;;;;6.90;2.80;;;17.30;99.90;;;;;;5033831;28;20408;-57
2022/08/09 01:53:28;;;;;;;9.10;2.42;;;;;;;;;;5051489;28;20413;-54
2022/08/09 01:55:55;;;;;;;7.40;2.83;;;;;;;;;;5052181;28;20413;-54
2022/08/09 01:58:21;;;;;;;5.78;2.30;;;;;;;;;;5051511;28;20544;-61
2022/08/09 02:00:49;;;;;;;8.93;2.83;;;;;;;;;;5052083;28;20460;-54
2022/08/09 02:03:16;;;;;;;7.90;2.90;;;;;;;;;;5040161;28;20392;-56
2022/08/09 02:05:43;;;;;;;7.20;3.10;;;;;;;;;;5051765;28;20431;-54
2022/08/09 02:08:11;;;;;;;10.00;3.00;;;;;;;;;;5052389;28;20412;-54
2022/08/09 02:10:38;;;;;;;6.43;2.60;;;;;;;;;;5051144;28;20395;-54
2022/08/09 02:13:05;;;;;;;7.10;2.90;;;;;;;;;;5051894;28;20434;-54
2022/08/09 02:15:33;;;;;;;7.20;2.95;;;;;;;;;;5032610;28;20438;-54
2022/08/09 02:18:00;;;;;;;8.03;2.80;;;;;;;;;;5051640;28;20754;-54
2022/08/09 02:20:28;;;;;;;7.72;2.70;;;;;;;;;;5033470;28;20386;-54
2022/08/09 02:23:02;;;;;;;6.70;2.80;;;;;;;;;;5051511;28;20401;-54
2022/08/09 02:25:31;;;;;;;6.65;2.70;;;;;;;;;;5050908;28;20417;-54
2022/08/09 02:28:01;;;;;;;8.90;2.90;;;;;;;;;;5048927;28;20476;-55
2022/08/09 02:30:31;;;;;;;8.55;3.20;;;;;;;;;;5050953;28;20416;-54
2022/08/09 02:32:58;;;;;;;7.90;3.10;;;;;;;;;;5048532;28;20401;-57
2022/08/09 02:35:25;;;;;;;8.80;3.20;;;;;;;;;;5050498;28;20381;-54
2022/08/09 02:37:55;;;;;;;7.15;3.05;;;;;;;;;;5051697;28;20923;-53
2022/08/09 02:40:22;;;;;;;8.07;3.20;;;;;;;;;;5049682;28;20385;-57
2022/08/09 02:42:49;;;;;;;6.87;3.10;;;;;;;;;;5033057;28;20385;-54
2022/08/09 02:45:17;;;;;;;6.68;2.72;;;;;;;;;;5051082;28;20854;-54
2022/08/09 02:47:43;;;;;;;7.88;3.10;;;;;;;;;;5033066;28;20382;-54
2022/08/09 02:50:19;;;;;;;8.63;3.30;;;;;;;;;;5051094;28;20790;-57
2022/08/09 02:52:54;;;;;;;17.15;3.60;;;;;;;;;;5030664;28;20389;-53
2022/08/09 02:55:21;;;;;;;7.72;3.40;;;;;;;;;;5033178;28;20416;-53
2022/08/09 02:57:47;;;;;;;8.13;3.13;;;;;;;;;;5050311;28;20528;-56
2022/08/09 03:00:13;;;;;;;8.18;3.10;;;;;;;;;;5050143;28;20400;-56
2022/08/09 03:02:41;;;;;;;7.80;3.22;;;;;;;;;;5050113;28;20408;-57
2022/08/09 03:05:10;;;;;;;8.20;3.15;;;;;;;;;;5051431;28;20365;-53
2022/08/09 03:07:36;;;;;;;7.18;3.00;;;;;;;;;;5041086;28;20447;-53
2022/08/09 03:10:03;;;;;;;8.10;3.30;;;;;;;;;;5050880;28;20381;-57
2022/08/09 03:12:29;;;;;;;7.10;3.17;;;;;;;;;;5050378;28;20373;-53
2022/08/09 03:14:56;;;;;;;7.30;3.10;;;;;;;;;;5029926;28;20425;-53
2022/08/09 03:17:22;;;;;;;9.68;3.35;;;;;;;;;;5049472;28;20397;-54
2022/08/09 03:19:49;;;;;;;6.80;2.95;;;;;;;;;;5050157;28;20390;-53
2022/08/09 03:22:15;;;;;;;7.50;3.10;;;;;;;;;;5032662;28;20699;-54
2022/08/09 03:24:41;;;;;;;8.40;3.30;;;;;;;;;;5039875;28;20886;-55
2022/08/09 03:27:08;;;;;;;10.75;3.58;;;;;;;;;;5049589;28;20424;-54
2022/08/09 03:29:35;;;;;;;8.25;3.40;;;;;;;;;;5049326;28;20385;-56
2022/08/09 03:32:02;;;;;;;7.80;3.63;;;;;;;;;;5032482;28;20382;-53
2022/08/09 03:34:28;;;;;;;9.48;4.10;;;;;;;;;;5040202;28;20396;-53
2022/08/09 03:36:56;;;;;;;6.70;3.10;;;;;;;;;;5050398;28;20369;-56
2022/08/09 03:39:24;;;;;;;8.48;3.90;;;;;;;;;;5030703;28;20416;-62
2022/08/09 03:41:50;;;;;;;7.90;3.42;;;;;;;;;;5050251;28;20446;-53
2022/08/09 03:44:16;;;;;;;7.07;3.13;;;15.60;1.00;;;;;;5050023;28;20377;-54
2022/08/09 03:46:42;;;;;;;7.50;3.50;;;15.70;1.00;;;;;;5048983;28;20429;-53
2022/08/09 03:49:10;;;;;;;7.82;3.40;;;15.90;1.00;;;;;;5031799;28;20484;-53
2022/08/09 03:51:42;;;;;;;7.70;3.80;;;15.80;1.00;;;;;;5030954;28;20401;-53
2022/08/09 03:54:09;;;;;;;7.35;3.50;;;15.80;1.00;;;;;;5031967;28;20397;-53
2022/08/09 03:56:35;;;;;;;8.05;3.80;;;15.70;1.00;;;;;;5031404;28;20409;-54
2022/08/09 03:59:01;;;;;;;7.60;3.60;;;15.80;1.00;;;;;;5032222;28;20766;-53
2022/08/09 04:01:27;;;;;;;9.90;3.70;;;15.70;1.00;;;;;;5049032;28;20763;-54
2022/08/09 04:03:53;;;;;;;8.35;3.40;;;15.70;1.00;;;;;;5049879;28;20389;-54
2022/08/09 04:06:19;;;;;;;7.00;3.30;;;15.60;1.00;;;;;;5049470;28;20378;-53
2022/08/09 04:08:45;;;;;;;7.50;3.10;;;15.60;60.50;;;;;;5048931;28;20399;-53
2022/08/09 04:11:11;;;;;;;12.10;3.80;;;15.60;1.00;;;;;;5050268;28;20456;-53
2022/08/09 04:13:36;;;;;;;7.82;3.78;;;15.70;1.00;;;;;;5048638;28;20408;-53
2022/08/09 04:16:02;;;;;;;7.50;3.70;;;15.80;1.00;;;;;;5049456;28;20378;-53
2022/08/09 04:18:28;;;;;;;7.05;3.13;;;15.70;1.00;;;;;;5048946;28;20420;-56
2022/08/09 04:20:53;;;;;;;8.80;3.47;;;15.60;1.00;;;;;;5049334;28;20401;-53
2022/08/09 04:23:20;;;;;;;8.07;3.20;;;15.60;1.00;;;;;;5049192;28;20451;-53
2022/08/09 04:25:45;;;;;;;8.57;3.38;;;15.60;1.00;;;;;;5030493;28;20516;-52
2022/08/09 04:28:11;;;;;;;8.82;3.50;;;15.60;1.00;;;;;;5049423;28;20826;-52
2022/08/09 04:30:37;;;;;;;7.93;3.53;;;15.60;1.00;;;;;;5048014;28;20393;-53
2022/08/09 04:33:03;;;;;;;11.67;4.13;;;15.60;1.00;;;;;;5031247;28;20398;-53
2022/08/09 04:35:28;;;;;;;13.98;5.22;;;15.60;70.10;;;;;;5048269;28;20480;-53
2022/08/09 04:37:54;;;;;;;13.77;4.80;;;15.60;88.10;;;;;;5030665;28;20401;-53
2022/08/09 04:40:20;;;;;;;9.88;4.00;;;15.70;99.90;;;;;;5049369;28;20381;-53
2022/08/09 04:42:46;;;;;;;15.60;5.55;;;15.70;99.90;;;;;;5048585;28;20385;-53
2022/08/09 04:45:12;;;;;;;21.90;7.03;;;;;;;;;;5048615;28;20441;-52
2022/08/09 04:47:38;;;;;;;9.30;4.10;;;;;;;;;;5030814;28;20433;-52
2022/08/09 04:50:04;;;;;;;9.35;3.28;;;;;;;;;;5049166;28;20388;-55
2022/08/09 04:52:30;;;;;;;9.88;4.10;;;;;;;;;;5027686;28;20438;-53
2022/08/09 04:54:58;;;;;;;6.50;3.00;;;;;;;;;;5040681;28;20393;-53
2022/08/09 04:57:24;;;;;;;12.32;3.20;;;;;;;;;;5048855;28;20416;-63
2022/08/09 04:59:50;;;;;;;7.18;3.20;;;;;;;;;;5048507;28;20413;-53
2022/08/09 05:02:16;;;;;;;8.70;3.33;;;;;;;;;;5048910;28;20369;-53
2022/08/09 05:04:42;;;;;;;9.95;3.25;;;;;;;;;;5038700;28;20457;-53
2022/08/09 05:07:08;;;;;;;8.43;2.70;;;;;;;;;;5049329;28;20369;-53
2022/08/09 05:09:34;;;;;;;10.43;3.17;;;;;;;;;;5048197;28;20721;-53
2022/08/09 05:12:00;;;;;;;8.65;2.97;;;;;;;;;;5048973;28;20381;-54
2022/08/09 05:14:30;;;;;;;9.23;3.03;;;;;;;;;;5029807;28;20520;-63
2022/08/09 05:16:58;;;;;;;8.38;3.10;;;;;;;;;;5031344;28;20378;-53
2022/08/09 05:19:24;;;;;;;10.20;3.20;;;;;;;;;;5048347;28;20412;-62
2022/08/09 05:21:50;;;;;;;9.32;2.90;;;;;;;;;;5045210;28;20727;-53
2022/08/09 05:24:16;;;;;;;7.30;3.00;;;24.90;99.90;;;;;;5047845;28;20404;-55
2022/08/09 05:26:41;;;;;;;8.68;3.60;;;24.90;99.90;;;;;;5047120;28;20401;-53
2022/08/09 05:29:07;;;;;;;8.15;4.15;;;25.20;99.90;;;;;;5048146;28;20417;-53
2022/08/09 05:31:33;;;;;;;8.37;3.77;;;25.40;99.90;;;;;;5048241;28;20377;-53
2022/08/09 05:33:58;;;;;;;8.50;4.20;;;25.60;99.90;;;;;;5032680;28;20391;-57
2022/08/09 05:36:24;;;;;;;8.30;4.30;;;25.70;99.90;;;;;;5039712;28;20395;-63
2022/08/09 05:38:50;;;;;;;9.07;3.40;;;26.20;99.90;;;;;;5048301;28;20881;-53
2022/08/09 05:41:15;;;;;;;10.00;3.73;;;26.70;1.00;;;;;;5048560;28;20400;-53
2022/08/09 05:43:41;;;;;;;8.30;4.53;;;27.30;1.00;;;;;;5048471;28;20382;-54
2022/08/09 05:46:07;;;;;;;8.30;4.70;;;27.60;1.00;;;;;;5048922;28;20402;-54
2022/08/09 05:48:32;;;;;;;7.50;4.60;;;28.50;1.00;;;;;;5048017;28;20392;-53
2022/08/09 05:50:58;;;;;;;9.23;5.28;;;29.40;1.00;;;;;;5034489;28;20424;-55
2022/08/09 05:53:24;;;;;;;8.20;5.60;;;30.30;1.00;;;;;;5052774;28;20389;-66
2022/08/09 05:55:49;;;;;;;10.00;5.60;;;30.70;1.00;;;;;;5052565;28;20405;-54
2022/08/09 05:58:15;;;;;;;13.23;7.30;;;31.00;1.00;;;;;;5053300;28;20402;-55
2022/08/09 06:00:41;;;;;;;11.07;6.85;;;31.10;1.00;;;;;;5051541;28;20389;-54
2022/08/09 06:03:07;;;;;;;11.55;6.25;;;31.40;1.00;;;;;;5052523;28;20386;-54
2022/08/09 06:05:35;;;;;;;9.93;5.60;;;31.00;1.00;;;;;;5043758;28;20433;-54
2022/08/09 06:08:00;;;;;;;8.50;6.00;;;30.70;1.00;;;;;;5052419;28;20406;-54
2022/08/09 06:10:47;;;;;;;8.70;6.50;;;30.90;1.00;;;;;;5051291;28;20394;-54
2022/08/09 06:13:12;;;;;;;10.05;6.20;;;31.10;1.00;;;;;;5051322;28;21232;-54
2022/08/09 06:15:39;;;;;;;10.07;5.93;;;;;;;;;;5033356;28;20394;-54
2022/08/09 06:18:05;;;;;;;13.67;6.97;;;31.30;99.90;;;;;;5034641;28;20432;-55
2022/08/09 06:20:31;;;;;;;13.43;6.70;;;30.90;99.90;;;;;;5032911;28;20405;-54
2022/08/09 06:22:58;;;;;;;12.43;6.97;;;31.10;99.90;;;;;;5034166;28;20393;-57
2022/08/09 06:25:24;;;;;;;12.13;7.30;;;31.70;99.90;;;;;;5052245;28;20412;-56
2022/08/09 06:27:49;;;;;;;9.73;7.10;;;32.60;99.90;;;;;;5051144;28;20405;-54
2022/08/09 06:30:16;;;;;;;11.55;7.05;;;;;;;;;;5050814;28;20455;-56
2022/08/09 06:32:42;;;;;;;15.40;8.63;;;34.30;99.90;;;;;;5051223;28;20382;-54
2022/08/09 06:35:09;;;;;;;9.27;7.13;;;34.50;99.90;;;;;;5051720;28;20423;-54
2022/08/09 06:37:36;;;;;;;8.20;6.60;;;34.80;99.90;;;;;;5051116;28;20401;-54
2022/08/09 06:40:01;;;;;;;7.53;6.20;;;34.30;99.90;;;;;;5051725;28;20839;-54
2022/08/09 06:42:27;;;;;;;8.45;7.10;;;33.50;99.90;;;;;;5050969;28;20393;-66
2022/08/09 06:44:53;;;;;;;7.97;6.63;;;33.90;99.90;;;;;;5051386;28;20738;-56
2022/08/09 06:47:18;;;;;;;8.43;6.10;;;34.80;99.90;;;;;;5052305;28;20374;-54
2022/08/09 06:49:44;;;;;;;7.93;6.67;;;35.10;99.90;;;;;;5033264;28;20397;-55
2022/08/09 06:52:10;;;;;;;8.70;6.80;;;34.40;99.90;;;;;;5050932;28;20435;-54
2022/08/09 06:54:36;;;;;;;10.27;7.05;;;34.30;99.90;;;;;;5050695;28;20381;-54
2022/08/09 06:57:01;;;;;;;8.63;4.40;;;34.70;99.90;;;;;;5032818;28;20912;-54
2022/08/09 06:59:27;;;;;;;9.90;4.50;;;34.60;99.90;;;;;;5050710;28;20453;-63
2022/08/09 07:01:52;;;;;;;7.97;4.10;;;34.40;99.90;;;;;;5050663;28;20381;-55
2022/08/09 07:04:18;;;;;;;7.70;3.90;;;34.20;99.90;;;;;;5051139;28;20859;-55
2022/08/09 07:06:44;;;;;;;7.93;4.10;;;33.50;99.90;;;;;;5050283;28;20396;-54
2022/08/09 07:09:11;;;;;;;14.70;5.23;;;34.80;99.90;;;;;;5050907;28;20413;-55
2022/08/09 07:11:36;;;;;;;9.32;4.78;;;36.30;99.90;;;;;;5050506;28;20893;-55
2022/08/09 07:14:02;;;;;;;7.90;4.30;;;36.60;99.90;;;;;;5050669;28;20397;-54
2022/08/09 07:16:28;;;;;;;9.07;4.53;;;35.90;99.90;;;;;;5050789;28;20934;-55
2022/08/09 07:18:53;;;;;;;9.67;5.10;;;36.40;99.90;;;;;;5050741;28;20406;-55
2022/08/09 07:21:19;;;;;;;8.68;4.95;;;36.00;99.90;;;;;;5051447;28;20398;-58
2022/08/09 07:23:45;;;;;;;8.03;4.03;;;36.00;99.90;;;;;;5050274;28;20392;-55
2022/08/09 07:26:10;;;;;;;7.38;3.92;;;36.20;99.90;;;;;;5050647;28;20492;-55
2022/08/09 07:28:36;;;;;;;8.00;4.37;;;36.20;99.90;;;;;;5050122;28;20413;-55
2022/08/09 07:31:03;;;;;;;8.40;4.07;;;36.80;99.90;;;;;;5050428;28;20382;-56
2022/08/09 07:33:30;;;;;;;7.70;4.53;;;37.40;99.90;;;;;;5049899;28;20386;-63
2022/08/09 07:35:55;;;;;;;7.30;3.33;;;37.50;99.90;;;;;;5043729;28;20390;-55
2022/08/09 07:38:21;;;;;;;8.10;3.90;;;37.00;99.90;;;;;;5050756;28;20412;-55
2022/08/09 07:40:47;;;;;;;8.30;4.18;;;37.10;99.90;;;;;;5050132;28;21020;-55
2022/08/09 07:43:13;;;;;;;6.60;3.80;;;37.90;99.90;;;;;;5050864;28;20380;-55
2022/08/09 07:45:38;;;;;;;7.30;6.22;;;37.40;99.90;;;;;;5050043;28;20460;-55
2022/08/09 07:48:04;;;;;;;10.40;7.40;;;38.40;99.90;;;;;;5050242;28;20390;-55
2022/08/09 07:50:30;;;;;;;8.70;7.80;;;37.80;99.90;;;;;;5050031;28;20389;-63
2022/08/09 07:52:56;;;;;;;7.90;5.07;;;37.90;99.90;;;;;;5050466;28;20377;-52
2022/08/09 07:55:22;;;;;;;6.50;3.70;;;38.50;99.90;;;;;;5049409;28;20412;-52
2022/08/09 07:57:49;;;;;;;7.15;3.58;;;38.60;99.90;;;;;;5049040;28;20502;-53
2022/08/09 08:00:18;;;;;;;6.97;4.07;;;38.30;99.90;;;;;;5049831;28;20393;-52
2022/08/09 08:02:44;;;;;;;9.55;3.85;;;38.80;99.90;;;;;;5049399;28;20495;-52
2022/08/09 08:05:10;;;;;;;7.85;7.05;;;39.00;99.90;;;;;;5049654;28;20409;-55
2022/08/09 08:07:36;;;;;;;7.28;5.90;;;39.20;99.90;;;;;;5030949;28;20385;-53
2022/08/09 08:10:03;;;;;;;7.90;6.40;;;39.20;99.90;;;;;;5050410;28;20787;-55
2022/08/09 08:12:28;;;;;;;7.68;6.47;;;39.30;99.90;;;;;;5049132;28;20468;-63
2022/08/09 08:14:54;;;;;;;7.57;6.20;;;39.00;99.90;;;;;;5049923;28;20469;-54
2022/08/09 08:17:20;;;;;;;8.03;6.80;;;38.10;99.90;;;;;;5032282;28;20420;-55
2022/08/09 08:19:45;;;;;;;7.90;6.90;;;38.20;99.90;;;;;;5049274;28;20417;-55
2022/08/09 08:22:11;;;;;;;7.27;5.50;;;38.30;99.90;;;;;;5049929;28;20381;-55
2022/08/09 08:24:37;;;;;;;9.50;6.10;;;39.20;99.90;;;;;;5031863;28;20389;-55
2022/08/09 08:27:02;;;;;;;8.27;6.60;;;39.20;99.90;;;;;;5049346;28;20488;-56
2022/08/09 08:29:29;;;;;;;8.37;7.10;;;39.70;99.90;;;;;;5049540;28;20385;-64
2022/08/09 08:31:55;;;;;;;7.95;7.07;;;39.30;99.90;;;;;;5049613;28;20377;-55
2022/08/09 08:34:21;;;;;;;8.68;7.30;;;39.30;99.90;;;;;;5049983;28;20468;-55
2022/08/09 08:36:46;;;;;;;9.20;7.50;;;39.90;99.90;;;;;;5049051;28;21025;-55
2022/08/09 08:39:12;;;;;;;8.20;7.40;;;40.10;99.90;;;;;;5049366;28;20759;-57
2022/08/09 08:41:38;;;;;;;6.30;3.88;;;39.90;99.90;;;;;;5048943;28;20472;-55
2022/08/09 08:44:05;;;;;;;6.30;3.40;;;39.70;99.90;;;;;;5049849;28;20443;-55
2022/08/09 08:46:38;;;;;;;11.20;3.97;;;39.30;99.90;;;;;;5049092;28;20432;-53
2022/08/09 08:49:06;;;;;;;8.45;4.05;;;39.20;99.90;;;;;;5049956;28;20396;-55
2022/08/09 08:51:32;;;;;;;7.47;4.43;;;39.30;99.90;;;;;;5049166;28;20374;-63
2022/08/09 08:53:58;;;;;;;6.30;3.40;;;39.80;99.90;;;;;;5049587;28;20857;-55
2022/08/09 08:56:24;;;;;;;8.43;7.50;;;40.00;99.90;;;;;;5049417;28;20397;-55
2022/08/09 08:58:51;;;;;;;9.77;7.30;;;39.30;99.90;;;;;;5048439;28;20978;-55
2022/08/09 09:01:17;;;;;;;7.78;6.97;;;39.20;99.90;;;;;;5049730;28;20747;-55
2022/08/09 09:03:43;;;;;;;10.20;6.93;;;39.80;99.90;;;;;;5049107;28;20875;-55
2022/08/09 09:06:12;;;;;;;9.55;7.80;;;38.90;99.90;;;;;;5049547;28;20377;-55
2022/08/09 09:08:40;;;;;;;7.90;6.57;;;38.40;99.90;;;;;;5048491;28;20731;-54
2022/08/09 09:11:06;;;;;;;7.20;3.60;;;37.90;99.90;;;;;;5049640;28;20378;-55
2022/08/09 09:13:39;;;;;;;6.82;3.40;;;38.40;99.90;;;;;;5048099;28;20385;-55
2022/08/09 09:16:06;;;;;;;7.50;4.30;;;38.80;99.90;;;;;;5049691;28;20515;-55
2022/08/09 09:18:32;;;;;;;9.00;3.70;;;39.10;99.90;;;;;;5049145;28;20416;-64
2022/08/09 09:20:58;;;;;;;7.10;3.97;;;39.50;99.90;;;;;;5049685;28;20377;-55
2022/08/09 09:23:42;;;;;;;9.75;6.80;;;39.90;99.90;;;;;;5050182;28;20381;-55
2022/08/09 09:26:08;;;;;;;9.50;6.47;;;39.40;99.90;;;;;;5053071;28;20957;-55
2022/08/09 09:28:35;;;;;;;8.00;6.90;;;38.20;99.90;;;;;;5052321;28;20872;-56
2022/08/09 09:31:01;;;;;;;7.00;6.00;;;38.30;99.90;;;;;;5053443;28;20434;-55
2022/08/09 09:33:35;;;;;;;7.70;6.60;;;39.00;99.90;;;;;;5053288;28;20373;-56
2022/08/09 09:36:03;;;;;;;7.20;6.37;;;39.80;99.90;;;;;;5053168;28;20420;-56
2022/08/09 09:38:51;;;;;;;7.50;6.70;;;39.60;99.90;;;;;;5052609;28;20464;-58
2022/08/09 09:41:22;;;;;;;9.52;6.90;;;39.50;99.90;;;;;;5052916;28;20855;-55
2022/08/09 09:43:51;;;;;;;9.00;6.50;;;39.00;99.90;;;;;;5051989;28;20388;-55
2022/08/09 09:46:17;;;;;;;7.83;4.87;;;39.60;99.90;;;;;;5053177;28;20378;-55
2022/08/09 09:49:08;;;;;;;6.70;3.50;;;39.80;99.90;;;;;;5052450;28;20388;-53
2022/08/09 09:51:36;;;;;;;6.78;3.40;;;40.30;99.90;;;;;;5051686;28;20757;-55
2022/08/09 09:54:21;;;;;;;6.30;2.93;;;40.70;99.90;;;;;;5052686;28;20851;-55
2022/08/09 09:56:49;;;;;;;6.83;2.83;;;39.70;99.90;;;;;;5052415;28;20435;-55
2022/08/09 09:59:21;;;;;;;6.05;2.35;;;38.90;99.90;;;;;;5052686;28;20482;-55
2022/08/09 10:02:00;;;;;;;8.88;2.85;;;38.70;99.90;;;;;;5051938;28;20386;-55
2022/08/09 10:04:26;;;;;;;8.80;3.00;;;37.70;99.90;;;;;;5052731;28;20815;-55
2022/08/09 10:06:52;;;;;;;6.13;2.80;;;37.20;99.90;;;;;;5034296;28;20464;-55
2022/08/09 10:09:18;;;;;;;6.60;3.20;;;36.80;99.90;;;;;;5052894;28;20382;-55
2022/08/09 10:11:43;;;;;;;9.35;7.50;;;36.70;99.90;;;;;;5051947;28;20507;-55
2022/08/09 10:14:29;;;;;;;6.95;5.75;;;37.00;99.90;;;;;;5052540;28;20389;-55
2022/08/09 10:16:55;;;;;;;7.93;5.60;;;36.90;99.90;;;;;;5052239;28;20385;-55
2022/08/09 10:19:34;;;;;;;8.30;7.47;;;36.80;99.90;;;;;;5051651;28;20409;-55
2022/08/09 10:22:00;;;;;;;7.40;6.30;;;37.20;99.90;;;;;;5052662;28;20467;-55
2022/08/09 10:24:26;;;;;;;9.87;7.80;;;36.60;99.90;;;;;;5034202;28;20389;-55
2022/08/09 10:26:55;;;;;;;7.83;7.03;;;37.10;99.90;;;;;;5051519;28;20674;-54
2022/08/09 10:29:21;;;;;;;8.25;6.00;;;37.80;99.90;;;;;;5051858;28;20421;-55
2022/08/09 10:31:48;;;;;;;8.70;5.80;;;38.10;99.90;;;;;;5051634;28;20391;-54
2022/08/09 10:34:15;;;;;;;8.02;5.15;;;36.30;99.90;;;;;;5052161;28;20468;-56
2022/08/09 10:36:41;;;;;;;7.40;6.50;;;35.80;99.90;;;;;;5033265;28;20468;-55
2022/08/09 10:39:08;;;;;;;8.20;6.30;;;35.80;99.90;;;;;;5052209;28;20415;-54
2022/08/09 10:41:34;;;;;;;9.50;5.70;;;35.70;99.90;;;;;;5051702;28;20428;-55
2022/08/09 10:44:00;;;;;;;7.15;5.10;;;35.50;99.90;;;;;;5052143;28;20446;-56
2022/08/09 10:46:53;;;;;;;7.40;5.40;;;34.90;99.90;;;;;;5052292;28;20373;-55
2022/08/09 10:49:35;;;;;;;7.82;6.47;;;34.20;99.90;;;;;;5033816;28;20381;-56
2022/08/09 10:52:12;;;;;;;8.43;7.43;;;34.20;99.90;;;;;;5051470;28;20539;-54
2022/08/09 10:54:38;;;;;;;8.00;7.00;;;33.60;99.90;;;;;;5050669;28;20393;-54
2022/08/09 10:57:14;;;;;;;7.40;6.60;;;33.50;99.90;;;;;;5050960;28;20390;-54
2022/08/09 10:59:42;;;;;;;7.25;6.45;;;33.50;99.90;;;;;;5032804;28;20444;-54
2022/08/09 11:02:15;;;;;;;8.93;7.10;;;33.20;99.90;;;;;;5051259;28;20476;-54
2022/08/09 11:04:42;;;;;;;9.30;5.87;;;32.90;99.90;;;;;;5050902;28;20381;-54
2022/08/09 11:07:07;;;;;;;9.07;6.97;;;32.50;99.90;;;;;;5051679;28;20438;-54
2022/08/09 11:09:36;;;;;;;7.80;6.20;;;32.50;99.90;;;;;;5051208;28;20794;-63
2022/08/09 11:12:18;;;;;;;7.45;6.65;;;32.60;99.90;;;;;;5050901;28;20747;-54
2022/08/09 11:14:47;;;;;;;8.70;7.10;;;32.80;99.90;;;;;;5050207;28;20867;-55
2022/08/09 11:17:12;;;;;;;8.15;7.10;;;32.90;99.90;;;;;;5051041;28;20385;-54
2022/08/09 11:19:56;;;;;;;8.13;7.00;;;33.00;99.90;;;;;;5049202;28;20747;-55
2022/08/09 11:22:45;;;;;;;7.50;6.20;;;33.20;99.90;;;;;;5051136;28;20487;-54
2022/08/09 11:25:20;;;;;;;9.20;6.75;;;32.70;99.90;;;;;;5046406;28;20433;-54
2022/08/09 11:27:51;;;;;;;7.88;7.03;;;32.10;99.90;;;;;;5050456;28;20822;-57
2022/08/09 11:30:22;;;;;;;8.27;6.50;;;32.00;99.90;;;;;;5050639;28;20896;-54
2022/08/09 11:32:55;;;;;;;7.78;5.70;;;31.90;99.90;;;;;;5048849;28;20416;-54
2022/08/09 11:35:26;;;;;;;8.77;6.60;;;32.20;99.90;;;;;;5050964;28;20850;-54
2022/08/09 11:37:56;;;;;;;7.20;6.10;;;32.50;99.90;;;;;;5049896;28;20476;-56
2022/08/09 11:40:31;;;;;;;8.45;6.38;;;32.50;99.90;;;;;;5050524;28;20386;-55
2022/08/09 11:43:00;;;;;;;9.80;6.18;;;32.40;99.90;;;;;;5050770;28;20389;-55
2022/08/09 11:45:41;;;;;;;7.30;6.05;;;32.70;99.90;;;;;;5050752;28;20378;-54
2022/08/09 11:48:10;;;;;;;7.97;6.30;;;32.30;99.90;;;;;;5050119;28;20389;-54
2022/08/09 11:50:57;;;;;;;8.60;7.27;;;32.40;99.90;;;;;;5050205;28;20424;-64
2022/08/09 11:53:24;;;;;;;7.45;6.20;;;32.70;99.90;;;;;;5050465;28;20378;-54
2022/08/09 11:55:52;;;;;;;7.97;6.30;;;32.90;99.90;;;;;;5049678;28;20746;-55
2022/08/09 11:58:17;;;;;;;7.10;5.60;;;32.80;99.90;;;;;;5050832;28;20504;-55
2022/08/09 12:00:49;;;;;;;8.30;6.83;;;32.60;99.90;;;;;;5048530;28;20481;-54
2022/08/09 12:03:17;;;;;;;8.10;6.32;;;32.10;99.90;;;;;;5050162;28;20373;-54
2022/08/09 12:05:43;;;;;;;7.63;6.50;;;31.80;99.90;;;;;;5049372;28;20527;-54
2022/08/09 12:08:10;;;;;;;12.83;6.37;;;31.70;99.90;;;;;;5050166;28;20794;-55
2022/08/09 12:10:41;;;;;;;8.68;6.80;;;32.00;99.90;;;;;;5050005;28;20750;-54
2022/08/09 12:13:07;;;;;;;9.27;6.50;;;32.20;99.90;;;;;;5050451;28;20373;-54
2022/08/09 12:15:33;;;;;;;7.07;6.37;;;32.50;99.90;;;;;;5032079;28;20387;-58
2022/08/09 12:17:59;;;;;;;7.70;5.82;;;32.70;99.90;;;;;;5050303;28;20425;-55
2022/08/09 12:20:26;;;;;;;8.27;6.32;;;;;;;;;;5050046;28;20477;-54
2022/08/09 12:22:54;;;;;;;8.52;6.45;;;;;;;;;;5049561;28;21363;-54
2022/08/09 12:25:20;;;;;;;6.70;5.13;;;;;;;;;;5050110;28;20373;-55
2022/08/09 12:27:46;;;;;;;7.22;5.80;;;;;;;;;;5048979;28;20497;-54
2022/08/09 12:30:12;;;;;;;6.90;6.03;;;;;;;;;;5050004;28;20377;-54
2022/08/09 12:32:38;;;;;;;6.70;5.75;;;;;;;;;;5049147;28;20414;-55
2022/08/09 12:35:05;;;;;;;7.70;5.53;;;;;;;;;;5031799;28;20385;-55
2022/08/09 12:37:32;;;;;;;9.50;6.40;;;;;;;;;;5049918;28;20389;-55
2022/08/09 12:40:03;;;;;;;8.93;6.10;;;;;;;;;;5031238;28;20763;-54
2022/08/09 12:42:29;;;;;;;7.80;5.90;;;32.90;1.00;;;;;;5049899;28;20827;-55
2022/08/09 12:44:55;;;;;;;8.68;6.03;;;32.80;1.00;;;;;;5048635;28;20413;-55
2022/08/09 12:47:21;;;;;;;7.32;5.93;;;32.70;1.00;;;;;;5049617;28;20421;-55
2022/08/09 12:50:16;;;;;;;7.33;5.90;;;33.00;1.00;;;;;;5048692;28;20381;-54
2022/08/09 12:52:41;;;;;;;7.00;6.15;;;33.10;1.00;;;;;;5049256;28;20386;-61
2022/08/09 12:55:09;;;;;;;6.43;4.82;;;33.10;1.00;;;;;;5049852;28;20381;-55
2022/08/09 12:57:45;;;;;;;6.87;5.80;;;;;;;;;;5049079;28;20377;-64
2022/08/09 13:00:20;;;;;;;7.30;6.00;;;31.90;1.00;;;;;;5035345;28;20882;-54
2022/08/09 13:02:51;;;;;;;6.70;4.60;;;31.50;1.00;;;;;;5053034;28;20858;-54
2022/08/09 13:05:18;;;;;;;7.95;5.20;;;31.80;1.00;;;;;;5053659;28;20855;-57
2022/08/09 13:08:08;;;;;;;7.45;6.15;;;32.10;1.00;;;;;;5053128;28;20724;-54
2022/08/09 13:10:49;;;;;;;9.70;6.10;;;32.30;1.00;;;;;;5053686;28;20389;-65
2022/08/09 13:13:30;;;;;;;7.70;5.60;;;32.70;1.00;;;;;;5053223;28;20738;-54
2022/08/09 13:16:07;;;;;;;8.10;5.70;;;32.90;1.00;;;;;;5052610;28;20393;-54
2022/08/09 13:18:44;;;;;;;8.50;5.60;;;32.70;1.00;;;;;;5053342;28;20402;-54
2022/08/09 13:21:23;;;;;;;8.00;5.78;;;32.50;1.00;;;;;;5053305;28;20856;-54
2022/08/09 13:24:15;;;;;;;7.47;5.45;;;32.70;1.00;;;;;;5053404;28;20393;-54
2022/08/09 13:26:45;;;;;;;9.20;6.05;;;32.50;1.00;;;;;;5052468;28;20440;-54
2022/08/09 13:29:19;;;;;;;6.70;5.70;;;32.70;1.00;;;;;;5053098;28;20420;-54
2022/08/09 13:32:02;;;;;;;7.70;5.80;;;32.80;1.00;;;;;;5053099;28;20513;-54